createdAt,value
2019-04-06T00:00:44.005Z,5.2
2019-04-06T00:01:34.883Z,5.4
2019-04-06T00:02:25.754Z,5.4
2019-04-06T00:03:16.648Z,5.5
2019-04-06T00:04:07.518Z,5.6
2019-04-06T00:04:58.386Z,5.7
2019-04-06T00:05:49.258Z,5.8
2019-04-06T00:06:42.885Z,5.9
2019-04-06T00:07:33.756Z,6
2019-04-06T00:08:24.649Z,6.1
2019-04-06T00:09:15.520Z,6.2
2019-04-06T00:10:06.384Z,6.2
2019-04-06T00:10:57.250Z,6.3
2019-04-06T00:11:48.119Z,6.3
2019-04-06T00:12:38.993Z,6.4
2019-04-06T00:13:29.896Z,6.4
2019-04-06T00:14:20.766Z,6.4
2019-04-06T00:15:11.638Z,6.5
2019-04-06T00:16:02.506Z,6.5
2019-04-06T00:16:53.381Z,6.5
2019-04-06T00:17:44.276Z,6.5
2019-04-06T00:18:35.185Z,6.5
2019-04-06T00:19:26.050Z,6.6
2019-04-06T00:20:16.919Z,6.6
2019-04-06T00:21:07.787Z,6.6
2019-04-06T00:21:58.658Z,6.6
2019-04-06T00:22:49.536Z,6.6
2019-04-06T00:23:40.401Z,6.6
2019-04-06T00:24:31.297Z,6.6
2019-04-06T00:25:22.164Z,6.6
2019-04-06T00:26:13.034Z,6.6
2019-04-06T00:27:03.902Z,6.6
2019-04-06T00:27:54.768Z,6.6
2019-04-06T00:28:45.784Z,6.6
2019-04-06T00:29:36.658Z,6.6
2019-04-06T00:30:27.554Z,6.6
2019-04-06T00:31:18.436Z,6.6
2019-04-06T00:32:12.477Z,6.7
2019-04-06T00:33:03.347Z,6.7
2019-04-06T00:33:54.267Z,6.6
2019-04-06T00:34:45.132Z,6.7
2019-04-06T00:35:36.004Z,6.7
2019-04-06T00:36:26.871Z,6.7
2019-04-06T00:37:17.740Z,6.7
2019-04-06T00:38:08.613Z,6.7
2019-04-06T00:38:59.482Z,6.7
2019-04-06T00:39:50.376Z,6.7
2019-04-06T00:40:41.243Z,6.7
2019-04-06T00:41:32.115Z,6.7
2019-04-06T00:42:22.980Z,6.7
2019-04-06T00:43:13.855Z,6.7
2019-04-06T00:44:04.719Z,6.7
2019-04-06T00:44:55.616Z,6.7
2019-04-06T00:45:46.486Z,6.7
2019-04-06T00:46:37.356Z,6.7
2019-04-06T00:47:28.234Z,6.7
2019-04-06T00:48:19.103Z,6.7
2019-04-06T00:49:10.020Z,6.6
2019-04-06T00:50:00.893Z,6.6
2019-04-06T00:50:51.762Z,6.6
2019-04-06T00:51:42.635Z,6.6
2019-04-06T00:52:33.507Z,6.6
2019-04-06T00:53:24.373Z,6.6
2019-04-06T00:54:16.252Z,6.6
2019-04-06T00:55:07.985Z,6.5
2019-04-06T00:55:58.856Z,6.5
2019-04-06T00:56:49.726Z,6.5
2019-04-06T00:57:40.592Z,6.5
2019-04-06T00:58:31.471Z,6.4
2019-04-06T00:59:22.376Z,6.4
2019-04-06T01:00:13.244Z,6.4
2019-04-06T01:01:04.116Z,6.4
2019-04-06T01:01:54.986Z,6.4
2019-04-06T01:02:45.852Z,6.4
2019-04-06T01:03:36.722Z,6.4
2019-04-06T01:04:27.623Z,6.4
2019-04-06T01:05:18.489Z,6.4
2019-04-06T01:06:12.516Z,6.4
2019-04-06T01:07:03.391Z,6.4
2019-04-06T01:07:54.260Z,6.4
2019-04-06T01:08:45.131Z,6.4
2019-04-06T01:09:36.028Z,6.3
2019-04-06T01:10:26.900Z,6.3
2019-04-06T01:11:17.769Z,6.3
2019-04-06T01:12:08.636Z,6.2
2019-04-06T01:12:59.502Z,6.2
2019-04-06T01:13:50.369Z,6.1
2019-04-06T01:14:41.269Z,6.1
2019-04-06T01:15:32.136Z,5.9
2019-04-06T01:16:22.998Z,5.9
2019-04-06T01:17:13.870Z,5.7
2019-04-06T01:18:04.744Z,5.6
2019-04-06T01:18:55.625Z,5.6
2019-04-06T01:19:46.557Z,5.5
2019-04-06T01:20:37.423Z,5.4
2019-04-06T01:21:28.299Z,5.3
2019-04-06T01:22:19.172Z,5.2
2019-04-06T01:23:12.971Z,5.1
2019-04-06T01:24:03.848Z,5
2019-04-06T01:24:54.745Z,4.9
2019-04-06T01:25:45.612Z,4.9
2019-04-06T01:26:36.489Z,4.9
2019-04-06T01:27:27.368Z,4.9
2019-04-06T01:28:18.241Z,4.8
2019-04-06T01:29:09.121Z,4.7
2019-04-06T01:29:59.993Z,4.6
2019-04-06T01:30:50.899Z,4.6
2019-04-06T01:31:41.770Z,4.4
2019-04-06T01:32:32.743Z,4.3
2019-04-06T01:33:23.629Z,4.2
2019-04-06T01:34:14.502Z,4.1
2019-04-06T01:35:05.401Z,4.1
2019-04-06T01:35:56.272Z,4.1
2019-04-06T01:36:47.145Z,4
2019-04-06T01:37:38.011Z,4
2019-04-06T01:38:28.884Z,3.9
2019-04-06T01:39:19.755Z,3.9
2019-04-06T01:40:10.652Z,3.8
2019-04-06T01:41:01.516Z,3.9
2019-04-06T01:41:52.382Z,4.1
2019-04-06T01:42:43.255Z,4.2
2019-04-06T01:43:34.128Z,4.4
2019-04-06T01:44:25.031Z,4.6
2019-04-06T01:45:15.948Z,4.7
2019-04-06T01:46:06.818Z,4.9
2019-04-06T01:46:57.689Z,5.1
2019-04-06T01:47:48.554Z,5.1
2019-04-06T01:48:43.230Z,5.1
2019-04-06T01:49:34.101Z,4.9
2019-04-06T01:50:25.001Z,4.9
2019-04-06T01:51:15.877Z,4.7
2019-04-06T01:52:06.808Z,4.5
2019-04-06T01:52:57.703Z,4.3
2019-04-06T01:53:48.604Z,4.2
2019-04-06T01:54:39.476Z,4
2019-04-06T01:55:30.378Z,3.8
2019-04-06T01:56:21.246Z,3.7
2019-04-06T01:57:12.116Z,3.6
2019-04-06T01:58:02.991Z,3.4
2019-04-06T01:58:53.870Z,3.4
2019-04-06T01:59:44.755Z,3.4
2019-04-06T02:00:35.659Z,3.4
2019-04-06T02:01:26.537Z,3.3
2019-04-06T02:02:17.408Z,3.2
2019-04-06T02:03:08.281Z,3.2
2019-04-06T02:03:59.147Z,3.2
2019-04-06T02:04:50.016Z,3.3
2019-04-06T02:05:40.962Z,3.4
2019-04-06T02:06:31.822Z,3.5
2019-04-06T02:07:22.758Z,3.6
2019-04-06T02:08:13.700Z,3.6
2019-04-06T02:09:04.579Z,3.6
2019-04-06T02:09:55.596Z,3.7
2019-04-06T02:10:46.697Z,3.7
2019-04-06T02:11:37.564Z,3.7
2019-04-06T02:12:28.432Z,3.7
2019-04-06T02:13:19.300Z,3.7
2019-04-06T02:14:13.069Z,3.9
2019-04-06T02:15:03.939Z,3.9
2019-04-06T02:15:54.865Z,3.9
2019-04-06T02:16:45.741Z,4
2019-04-06T02:17:36.610Z,4
2019-04-06T02:18:27.477Z,4.1
2019-04-06T02:19:18.343Z,4.1
2019-04-06T02:20:12.356Z,4.1
2019-04-06T02:21:03.249Z,4.2
2019-04-06T02:21:54.115Z,4.3
2019-04-06T02:22:44.992Z,4.4
2019-04-06T02:23:35.862Z,4.4
2019-04-06T02:24:26.729Z,4.4
2019-04-06T02:25:17.599Z,4.5
2019-04-06T02:26:08.492Z,4.6
2019-04-06T02:26:59.363Z,4.6
2019-04-06T02:27:50.300Z,4.7
2019-04-06T02:28:41.316Z,4.8
2019-04-06T02:29:32.236Z,4.8
2019-04-06T02:30:23.111Z,4.9
2019-04-06T02:31:14.120Z,4.9
2019-04-06T02:32:05.020Z,4.9
2019-04-06T02:32:56.021Z,4.9
2019-04-06T02:33:46.894Z,4.9
2019-04-06T02:34:37.772Z,4.9
2019-04-06T02:35:28.639Z,4.8
2019-04-06T02:36:19.688Z,4.8
2019-04-06T02:37:13.649Z,4.8
2019-04-06T02:38:04.532Z,4.8
2019-04-06T02:38:55.424Z,4.7
2019-04-06T02:39:46.344Z,4.7
2019-04-06T02:40:37.218Z,4.7
2019-04-06T02:41:28.102Z,4.7
2019-04-06T02:42:19.001Z,4.7
2019-04-06T02:43:09.879Z,4.7
2019-04-06T02:44:00.756Z,4.7
2019-04-06T02:44:51.632Z,4.8
2019-04-06T02:45:42.518Z,4.8
2019-04-06T02:46:33.394Z,4.9
2019-04-06T02:47:24.288Z,4.9
2019-04-06T02:48:15.162Z,4.9
2019-04-06T02:49:06.049Z,4.9
2019-04-06T02:49:56.917Z,4.9
2019-04-06T02:50:47.783Z,4.9
2019-04-06T02:51:38.663Z,4.8
2019-04-06T02:52:29.555Z,4.8
2019-04-06T02:53:20.424Z,4.8
2019-04-06T02:54:14.788Z,4.8
2019-04-06T02:55:05.658Z,4.8
2019-04-06T02:55:56.539Z,4.8
2019-04-06T02:56:47.953Z,4.7
2019-04-06T02:57:38.909Z,4.7
2019-04-06T02:58:29.799Z,4.7
2019-04-06T02:59:20.670Z,4.7
2019-04-06T03:00:11.641Z,4.8
2019-04-06T03:01:02.537Z,4.8
2019-04-06T03:01:53.439Z,4.7
2019-04-06T03:02:44.313Z,4.7
2019-04-06T03:03:35.196Z,4.7
2019-04-06T03:04:26.070Z,4.6
2019-04-06T03:05:16.948Z,4.6
2019-04-06T03:06:07.825Z,4.6
2019-04-06T03:06:58.851Z,4.6
2019-04-06T03:07:49.748Z,4.7
2019-04-06T03:08:40.624Z,4.7
2019-04-06T03:09:31.496Z,4.7
2019-04-06T03:10:22.365Z,4.8
2019-04-06T03:11:13.234Z,4.8
2019-04-06T03:12:04.139Z,4.9
2019-04-06T03:12:55.012Z,4.9
2019-04-06T03:13:45.881Z,4.9
2019-04-06T03:14:36.757Z,4.9
2019-04-06T03:15:27.724Z,4.9
2019-04-06T03:16:18.637Z,4.9
2019-04-06T03:17:09.546Z,4.9
2019-04-06T03:18:00.422Z,4.9
2019-04-06T03:18:51.300Z,4.9
2019-04-06T03:19:42.169Z,4.9
2019-04-06T03:20:33.047Z,4.9
2019-04-06T03:21:23.978Z,5
2019-04-06T03:22:14.883Z,5
2019-04-06T03:23:05.780Z,5
2019-04-06T03:23:56.648Z,5
2019-04-06T03:24:47.520Z,5
2019-04-06T03:25:38.401Z,4.9
2019-04-06T03:26:29.267Z,4.9
2019-04-06T03:27:20.167Z,4.8
2019-04-06T03:28:11.038Z,4.7
2019-04-06T03:29:01.908Z,4.7
2019-04-06T03:29:58.063Z,4.7
2019-04-06T03:30:48.599Z,4.6
2019-04-06T03:31:39.674Z,4.6
2019-04-06T03:32:30.707Z,4.6
2019-04-06T03:33:21.595Z,4.6
2019-04-06T03:34:12.913Z,4.5
2019-04-06T03:35:03.874Z,4.4
2019-04-06T03:35:54.765Z,4.4
2019-04-06T03:36:45.663Z,4.4
2019-04-06T03:37:41.638Z,4.2
2019-04-06T03:38:32.517Z,4.2
2019-04-06T03:39:23.598Z,4.2
2019-04-06T03:40:14.509Z,4.2
2019-04-06T03:41:05.383Z,4.1
2019-04-06T03:41:56.260Z,4.1
2019-04-06T03:42:47.166Z,4.1
2019-04-06T03:43:38.033Z,4.1
2019-04-06T03:44:28.907Z,4.1
2019-04-06T03:45:19.777Z,4.1
2019-04-06T03:46:10.680Z,4
2019-04-06T03:47:01.550Z,4.1
2019-04-06T03:47:52.446Z,4.1
2019-04-06T03:48:43.321Z,4
2019-04-06T03:49:34.200Z,4
2019-04-06T03:50:25.073Z,4.1
2019-04-06T03:51:15.947Z,4.1
2019-04-06T03:52:06.813Z,4.1
2019-04-06T03:52:57.719Z,4.2
2019-04-06T03:53:48.682Z,4.2
2019-04-06T03:54:39.579Z,4.2
2019-04-06T03:55:30.454Z,4.2
2019-04-06T03:56:21.328Z,4.2
2019-04-06T03:57:16.992Z,4.1
2019-04-06T03:58:10.856Z,4.1
2019-04-06T03:59:01.873Z,4.1
2019-04-06T03:59:52.984Z,4.1
2019-04-06T04:00:43.893Z,4
2019-04-06T04:01:34.766Z,4
2019-04-06T04:02:25.637Z,3.9
2019-04-06T04:03:16.531Z,3.9
2019-04-06T04:04:10.164Z,4
2019-04-06T04:05:01.033Z,4
2019-04-06T04:05:51.909Z,3.9
2019-04-06T04:06:42.780Z,3.9
2019-04-06T04:07:33.654Z,3.9
2019-04-06T04:08:24.551Z,3.9
2019-04-06T04:09:15.419Z,3.8
2019-04-06T04:10:06.293Z,3.7
2019-04-06T04:10:57.189Z,3.7
2019-04-06T04:11:48.065Z,3.6
2019-04-06T04:12:39.134Z,3.6
2019-04-06T04:13:30.041Z,3.6
2019-04-06T04:14:20.912Z,3.6
2019-04-06T04:15:11.781Z,3.6
2019-04-06T04:16:02.649Z,3.6
2019-04-06T04:16:53.520Z,3.6
2019-04-06T04:17:44.399Z,3.6
2019-04-06T04:18:35.295Z,3.5
2019-04-06T04:19:26.170Z,3.5
2019-04-06T04:20:17.041Z,3.4
2019-04-06T04:21:11.127Z,3.4
2019-04-06T04:22:02.000Z,3.4
2019-04-06T04:22:52.899Z,3.4
2019-04-06T04:23:43.945Z,3.4
2019-04-06T04:24:34.829Z,3.4
2019-04-06T04:25:25.699Z,3.3
2019-04-06T04:26:16.569Z,3.2
2019-04-06T04:27:07.439Z,3.2
2019-04-06T04:27:58.489Z,3.3
2019-04-06T04:28:49.403Z,3.4
2019-04-06T04:29:40.272Z,3.4
2019-04-06T04:30:33.501Z,3.4
2019-04-06T04:31:24.852Z,3.4
2019-04-06T04:32:15.721Z,3.4
2019-04-06T04:33:06.626Z,3.4
2019-04-06T04:33:57.549Z,3.4
2019-04-06T04:34:48.423Z,3.4
2019-04-06T04:35:39.291Z,3.4
2019-04-06T04:36:30.162Z,3.5
2019-04-06T04:37:21.040Z,3.5
2019-04-06T04:38:11.913Z,3.5
2019-04-06T04:39:02.814Z,3.5
2019-04-06T04:39:53.689Z,3.5
2019-04-06T04:40:44.568Z,3.4
2019-04-06T04:41:35.438Z,3.4
2019-04-06T04:42:26.301Z,3.4
2019-04-06T04:43:17.170Z,3.3
2019-04-06T04:44:08.069Z,3.2
2019-04-06T04:44:59.089Z,3.2
2019-04-06T04:45:50.123Z,3.2
2019-04-06T04:46:40.994Z,3.2
2019-04-06T04:47:31.860Z,3.2
2019-04-06T04:48:22.732Z,3.2
2019-04-06T04:49:13.631Z,3.2
2019-04-06T04:50:04.661Z,3.2
2019-04-06T04:50:59.223Z,3.2
2019-04-06T04:51:50.096Z,3.3
2019-04-06T04:52:40.966Z,3.4
2019-04-06T04:53:31.842Z,3.4
2019-04-06T04:54:22.743Z,3.4
2019-04-06T04:55:13.650Z,3.4
2019-04-06T04:56:04.522Z,3.5
2019-04-06T04:56:55.397Z,3.5
2019-04-06T04:57:46.267Z,3.6
2019-04-06T04:58:37.191Z,3.6
2019-04-06T04:59:28.108Z,3.7
2019-04-06T05:00:18.982Z,3.7
2019-04-06T05:01:09.858Z,3.7
2019-04-06T05:02:00.730Z,3.7
2019-04-06T05:02:51.606Z,3.6
2019-04-06T05:03:42.473Z,3.6
2019-04-06T05:04:33.375Z,3.6
2019-04-06T05:05:24.247Z,3.6
2019-04-06T05:06:15.115Z,3.6
2019-04-06T05:07:06.001Z,3.6
2019-04-06T05:07:57.073Z,3.6
2019-04-06T05:08:47.966Z,3.6
2019-04-06T05:09:39.005Z,3.6
2019-04-06T05:10:29.900Z,3.6
2019-04-06T05:11:20.792Z,3.7
2019-04-06T05:12:11.666Z,3.7
2019-04-06T05:13:02.534Z,3.7
2019-04-06T05:13:53.402Z,3.9
2019-04-06T05:14:47.344Z,3.9
2019-04-06T05:15:38.214Z,4
2019-04-06T05:16:29.085Z,4
2019-04-06T05:17:19.967Z,4.1
2019-04-06T05:18:10.843Z,4.2
2019-04-06T05:19:01.708Z,4.2
2019-04-06T05:19:52.625Z,4.3
2019-04-06T05:20:43.558Z,4.4
2019-04-06T05:21:34.441Z,4.4
2019-04-06T05:22:29.159Z,4.5
2019-04-06T05:23:20.027Z,4.6
2019-04-06T05:24:10.893Z,4.7
2019-04-06T05:25:01.799Z,4.7
2019-04-06T05:25:52.667Z,4.8
2019-04-06T05:26:43.589Z,4.9
2019-04-06T05:27:34.475Z,5
2019-04-06T05:28:25.697Z,5.1
2019-04-06T05:29:16.674Z,5.1
2019-04-06T05:30:07.650Z,5.1
2019-04-06T05:30:58.527Z,5.2
2019-04-06T05:31:49.395Z,5.2
2019-04-06T05:32:40.296Z,5.3
2019-04-06T05:33:31.177Z,5.3
2019-04-06T05:34:22.052Z,5.4
2019-04-06T05:35:12.923Z,5.4
2019-04-06T05:36:03.829Z,5.4
2019-04-06T05:36:54.756Z,5.4
2019-04-06T05:37:45.666Z,5.5
2019-04-06T05:38:36.543Z,5.5
2019-04-06T05:39:27.412Z,5.5
2019-04-06T05:40:18.311Z,5.6
2019-04-06T05:41:09.181Z,5.6
2019-04-06T05:42:00.054Z,5.6
2019-04-06T05:42:51.065Z,5.6
2019-04-06T05:43:41.970Z,5.6
2019-04-06T05:44:32.998Z,5.6
2019-04-06T05:45:23.877Z,5.6
2019-04-06T05:46:17.743Z,5.6
2019-04-06T05:47:08.693Z,5.6
2019-04-06T05:47:59.575Z,5.6
2019-04-06T05:48:50.448Z,5.7
2019-04-06T05:49:41.323Z,5.7
2019-04-06T05:50:32.227Z,5.7
2019-04-06T05:51:23.148Z,5.7
2019-04-06T05:52:14.082Z,5.7
2019-04-06T05:53:04.957Z,5.7
2019-04-06T05:53:59.482Z,5.7
2019-04-06T05:54:50.364Z,5.7
2019-04-06T05:55:41.455Z,5.8
2019-04-06T05:56:32.344Z,5.8
2019-04-06T05:57:23.214Z,5.9
2019-04-06T05:58:14.082Z,5.9
2019-04-06T05:59:04.950Z,5.9
2019-04-06T05:59:55.926Z,5.9
2019-04-06T06:00:46.848Z,5.9
2019-04-06T06:01:40.251Z,5.9
2019-04-06T06:02:31.398Z,5.9
2019-04-06T06:03:22.404Z,6
2019-04-06T06:04:13.276Z,6
2019-04-06T06:05:04.191Z,6
2019-04-06T06:05:55.093Z,6.1
2019-04-06T06:06:45.959Z,6.1
2019-04-06T06:07:37.929Z,6.2
2019-04-06T06:08:30.510Z,6.4
2019-04-06T06:09:21.620Z,6.5
2019-04-06T06:10:12.559Z,6.7
2019-04-06T06:11:03.522Z,6.9
2019-04-06T06:11:55.578Z,7.1
2019-04-06T06:12:46.813Z,7.3
2019-04-06T06:13:39.335Z,7.5
2019-04-06T06:14:30.359Z,7.7
2019-04-06T06:15:21.276Z,7.9
2019-04-06T06:16:12.356Z,8
2019-04-06T06:17:03.319Z,8
2019-04-06T06:17:54.297Z,8.1
2019-04-06T06:18:45.359Z,8.1
2019-04-06T06:19:36.574Z,8.1
2019-04-06T06:20:27.521Z,8.1
2019-04-06T06:21:18.416Z,8.1
2019-04-06T06:22:09.290Z,8.1
2019-04-06T06:23:00.164Z,8.1
2019-04-06T06:23:51.031Z,8.1
2019-04-06T06:24:41.903Z,8.1
2019-04-06T06:25:33.057Z,8.1
2019-04-06T06:26:23.961Z,8.1
2019-04-06T06:27:18.562Z,8.1
2019-04-06T06:28:14.803Z,8.1
2019-04-06T06:29:05.260Z,8.1
2019-04-06T06:29:56.211Z,8.1
2019-04-06T06:30:47.152Z,8.1
2019-04-06T06:31:38.286Z,8.1
2019-04-06T06:32:31.073Z,8.1
2019-04-06T06:33:22.405Z,8.1
2019-04-06T06:34:13.350Z,8.1
2019-04-06T06:35:04.269Z,8.1
2019-04-06T06:35:55.190Z,8.1
2019-04-06T06:36:46.095Z,8.1
2019-04-06T06:37:37.202Z,8.1
2019-04-06T06:38:28.141Z,8.1
2019-04-06T06:39:19.050Z,8.1
2019-04-06T06:40:09.993Z,8.1
2019-04-06T06:41:01.061Z,8.1
2019-04-06T06:41:51.983Z,8.1
2019-04-06T06:42:42.857Z,8.1
2019-04-06T06:43:33.733Z,8.1
2019-04-06T06:44:24.607Z,8.2
2019-04-06T06:45:18.559Z,8.2
2019-04-06T06:46:09.429Z,8.2
2019-04-06T06:47:00.325Z,8.2
2019-04-06T06:47:51.193Z,8.2
2019-04-06T06:48:43.123Z,8.2
2019-04-06T06:49:34.266Z,8.2
2019-04-06T06:50:25.139Z,8.2
2019-04-06T06:51:16.009Z,8.2
2019-04-06T06:52:06.924Z,8.2
2019-04-06T06:52:57.995Z,8.2
2019-04-06T06:53:48.966Z,8.2
2019-04-06T06:54:39.836Z,8.2
2019-04-06T06:55:30.704Z,8.2
2019-04-06T06:56:21.585Z,8.2
2019-04-06T06:57:12.478Z,8.3
2019-04-06T06:58:03.518Z,8.3
2019-04-06T06:58:54.393Z,8.3
2019-04-06T06:59:45.493Z,8.3
2019-04-06T07:00:36.384Z,8.3
2019-04-06T07:01:27.324Z,8.3
2019-04-06T07:02:18.307Z,8.3
2019-04-06T07:03:09.247Z,8.3
2019-04-06T07:04:00.182Z,8.3
2019-04-06T07:04:51.097Z,8.3
2019-04-06T07:05:41.971Z,8.3
2019-04-06T07:06:32.860Z,8.3
2019-04-06T07:07:23.757Z,8.3
2019-04-06T07:08:14.632Z,8.3
2019-04-06T07:09:05.500Z,8.3
2019-04-06T07:10:04.365Z,8.3
2019-04-06T07:10:52.178Z,8.3
2019-04-06T07:11:43.216Z,8.3
2019-04-06T07:12:34.114Z,8.3
2019-04-06T07:13:24.988Z,8.3
2019-04-06T07:14:16.078Z,8.3
2019-04-06T07:15:06.984Z,8.3
2019-04-06T07:16:02.854Z,8.3
2019-04-06T07:16:53.727Z,8.3
2019-04-06T07:17:44.640Z,8.3
2019-04-06T07:18:35.516Z,8.3
2019-04-06T07:19:26.383Z,8.4
2019-04-06T07:20:17.251Z,8.4
2019-04-06T07:21:08.120Z,8.4
2019-04-06T07:21:59.032Z,8.4
2019-04-06T07:22:49.968Z,8.4
2019-04-06T07:23:40.836Z,8.4
2019-04-06T07:24:31.708Z,8.4
2019-04-06T07:25:22.616Z,8.4
2019-04-06T07:26:13.496Z,8.4
2019-04-06T07:27:04.368Z,8.4
2019-04-06T07:27:55.282Z,8.4
2019-04-06T07:28:46.148Z,8.4
2019-04-06T07:29:37.028Z,8.4
2019-04-06T07:30:27.924Z,8.4
2019-04-06T07:31:18.956Z,8.4
2019-04-06T07:32:09.859Z,8.4
2019-04-06T07:33:00.725Z,8.4
2019-04-06T07:33:51.626Z,8.4
2019-04-06T07:34:42.613Z,8.5
2019-04-06T07:35:33.487Z,8.5
2019-04-06T07:36:24.352Z,8.5
2019-04-06T07:37:15.221Z,8.5
2019-04-06T07:38:06.343Z,8.5
2019-04-06T07:38:57.227Z,8.5
2019-04-06T07:39:48.094Z,8.5
2019-04-06T07:40:38.966Z,8.5
2019-04-06T07:41:29.836Z,8.5
2019-04-06T07:42:20.710Z,8.5
2019-04-06T07:43:11.625Z,8.5
2019-04-06T07:44:02.563Z,8.6
2019-04-06T07:44:53.456Z,8.6
2019-04-06T07:45:44.347Z,8.6
2019-04-06T07:46:35.224Z,8.6
2019-04-06T07:47:26.187Z,8.6
2019-04-06T07:48:17.111Z,8.6
2019-04-06T07:49:09.961Z,8.6
2019-04-06T07:50:01.183Z,8.6
2019-04-06T07:50:52.067Z,8.6
2019-04-06T07:51:42.931Z,8.6
2019-04-06T07:52:33.800Z,8.6
2019-04-06T07:53:24.697Z,8.6
2019-04-06T07:54:15.565Z,8.6
2019-04-06T07:55:06.434Z,8.6
2019-04-06T07:55:57.307Z,8.6
2019-04-06T07:56:48.178Z,8.6
2019-04-06T07:57:39.046Z,8.6
2019-04-06T07:58:30.163Z,8.6
2019-04-06T07:59:21.238Z,8.6
2019-04-06T08:00:12.190Z,8.6
2019-04-06T08:01:03.063Z,8.7
2019-04-06T08:01:53.941Z,8.7
2019-04-06T08:02:44.928Z,8.7
2019-04-06T08:03:36.008Z,8.7
2019-04-06T08:04:26.914Z,8.7
2019-04-06T08:05:17.972Z,8.7
2019-04-06T08:06:08.878Z,8.7
2019-04-06T08:06:59.742Z,8.8
2019-04-06T08:07:50.813Z,8.8
2019-04-06T08:08:41.739Z,8.8
2019-04-06T08:09:32.603Z,8.8
2019-04-06T08:10:23.766Z,8.8
2019-04-06T08:11:14.769Z,8.8
2019-04-06T08:12:05.638Z,8.8
2019-04-06T08:12:56.515Z,8.8
2019-04-06T08:13:47.382Z,8.8
2019-04-06T08:14:38.280Z,8.8
2019-04-06T08:15:29.310Z,8.8
2019-04-06T08:16:20.179Z,8.8
2019-04-06T08:17:11.048Z,8.8
2019-04-06T08:18:01.914Z,8.9
2019-04-06T08:18:52.843Z,8.9
2019-04-06T08:19:43.713Z,8.9
2019-04-06T08:20:34.628Z,8.9
2019-04-06T08:21:25.491Z,8.9
2019-04-06T08:22:16.355Z,8.9
2019-04-06T08:23:07.295Z,8.9
2019-04-06T08:23:58.597Z,8.9
2019-04-06T08:24:49.514Z,8.9
2019-04-06T08:25:40.377Z,8.9
2019-04-06T08:26:31.244Z,8.9
2019-04-06T08:27:22.255Z,8.9
2019-04-06T08:28:13.139Z,8.9
2019-04-06T08:29:04.038Z,8.9
2019-04-06T08:29:54.936Z,9
2019-04-06T08:30:46.774Z,9
2019-04-06T08:31:37.931Z,9
2019-04-06T08:32:28.811Z,9
2019-04-06T08:33:19.682Z,9
2019-04-06T08:34:10.553Z,9
2019-04-06T08:35:01.461Z,9
2019-04-06T08:35:52.432Z,9
2019-04-06T08:36:43.306Z,9
2019-04-06T08:37:34.279Z,9.1
2019-04-06T08:38:25.155Z,9.1
2019-04-06T08:39:16.021Z,9.1
2019-04-06T08:40:06.917Z,9.1
2019-04-06T08:40:57.784Z,9.1
2019-04-06T08:41:48.830Z,9.1
2019-04-06T08:42:39.729Z,9.1
2019-04-06T08:43:30.878Z,9.1
2019-04-06T08:44:21.760Z,9.1
2019-04-06T08:45:14.007Z,9.1
2019-04-06T08:46:05.103Z,9.1
2019-04-06T08:46:55.976Z,9.1
2019-04-06T08:47:46.848Z,9.1
2019-04-06T08:48:37.710Z,9.1
2019-04-06T08:49:28.592Z,9.1
2019-04-06T08:50:19.492Z,9.1
2019-04-06T08:51:10.375Z,9.2
2019-04-06T08:52:01.484Z,9.2
2019-04-06T08:52:52.366Z,9.2
2019-04-06T08:53:43.262Z,9.2
2019-04-06T08:54:34.450Z,9.2
2019-04-06T08:55:25.709Z,9.3
2019-04-06T08:56:16.613Z,9.3
2019-04-06T08:57:07.488Z,9.3
2019-04-06T08:57:58.361Z,9.3
2019-04-06T08:58:49.232Z,9.3
2019-04-06T08:59:40.120Z,9.3
2019-04-06T09:00:31.203Z,9.3
2019-04-06T09:01:22.155Z,9.3
2019-04-06T09:02:13.029Z,9.3
2019-04-06T09:03:03.940Z,9.3
2019-04-06T09:03:54.811Z,9.3
2019-04-06T09:04:45.681Z,9.3
2019-04-06T09:05:36.577Z,9.4
2019-04-06T09:06:27.484Z,9.4
2019-04-06T09:07:18.358Z,9.4
2019-04-06T09:08:09.222Z,9.4
2019-04-06T09:09:00.089Z,9.4
2019-04-06T09:09:50.968Z,9.4
2019-04-06T09:10:41.894Z,9.4
2019-04-06T09:11:32.766Z,9.4
2019-04-06T09:12:23.633Z,9.4
2019-04-06T09:13:14.501Z,9.4
2019-04-06T09:14:05.370Z,9.4
2019-04-06T09:14:56.235Z,9.5
2019-04-06T09:15:47.137Z,9.5
2019-04-06T09:16:38.044Z,9.5
2019-04-06T09:17:28.942Z,9.5
2019-04-06T09:18:19.848Z,9.5
2019-04-06T09:19:10.787Z,9.5
2019-04-06T09:20:01.679Z,9.5
2019-04-06T09:20:52.577Z,9.6
2019-04-06T09:21:43.440Z,9.6
2019-04-06T09:22:34.397Z,9.6
2019-04-06T09:23:25.286Z,9.6
2019-04-06T09:24:16.455Z,9.6
2019-04-06T09:25:07.358Z,9.6
2019-04-06T09:25:58.263Z,9.6
2019-04-06T09:26:49.135Z,9.6
2019-04-06T09:27:40.014Z,9.6
2019-04-06T09:28:30.928Z,9.6
2019-04-06T09:29:23.511Z,9.6
2019-04-06T09:30:15.242Z,9.7
2019-04-06T09:31:06.408Z,9.7
2019-04-06T09:31:57.474Z,9.7
2019-04-06T09:32:48.370Z,9.7
2019-04-06T09:33:39.240Z,9.7
2019-04-06T09:34:31.091Z,9.7
2019-04-06T09:35:22.369Z,9.8
2019-04-06T09:36:13.477Z,9.8
2019-04-06T09:37:04.375Z,9.8
2019-04-06T09:37:55.433Z,9.8
2019-04-06T09:38:46.445Z,9.8
2019-04-06T09:39:37.324Z,9.8
2019-04-06T09:40:28.439Z,9.8
2019-04-06T09:41:19.572Z,9.8
2019-04-06T09:42:10.453Z,9.8
2019-04-06T09:43:01.326Z,9.8
2019-04-06T09:43:52.458Z,9.8
2019-04-06T09:44:43.389Z,9.8
2019-04-06T09:45:34.472Z,9.8
2019-04-06T09:46:25.371Z,9.8
2019-04-06T09:47:16.241Z,9.9
2019-04-06T09:48:07.114Z,9.9
2019-04-06T09:48:58.004Z,9.9
2019-04-06T09:49:48.896Z,9.9
2019-04-06T09:50:39.779Z,9.9
2019-04-06T09:51:30.675Z,9.9
2019-04-06T09:52:21.540Z,10.1
2019-04-06T09:53:12.409Z,10.3
2019-04-06T09:54:06.123Z,10.4
2019-04-06T09:54:57.851Z,10.4
2019-04-06T09:55:48.723Z,10.3
2019-04-06T09:56:39.615Z,10.3
2019-04-06T09:57:30.483Z,10.3
2019-04-06T09:58:21.360Z,10.3
2019-04-06T09:59:12.226Z,10.2
2019-04-06T10:00:03.090Z,10.2
2019-04-06T10:00:53.962Z,10.2
2019-04-06T10:01:44.860Z,10.2
2019-04-06T10:02:39.359Z,10.1
2019-04-06T10:03:30.477Z,10.1
2019-04-06T10:04:21.364Z,10.1
2019-04-06T10:05:12.237Z,10.1
2019-04-06T10:06:03.106Z,10.1
2019-04-06T10:06:54.093Z,10.1
2019-04-06T10:07:44.978Z,10.2
2019-04-06T10:08:38.555Z,10.2
2019-04-06T10:09:29.429Z,10.2
2019-04-06T10:10:20.491Z,10.2
2019-04-06T10:11:11.547Z,10.2
2019-04-06T10:12:03.893Z,10.2
2019-04-06T10:12:55.537Z,10.2
2019-04-06T10:13:46.435Z,10.2
2019-04-06T10:14:37.329Z,10.2
2019-04-06T10:15:28.202Z,10.2
2019-04-06T10:16:19.072Z,10.3
2019-04-06T10:17:10.242Z,10.3
2019-04-06T10:18:01.155Z,10.3
2019-04-06T10:18:52.241Z,10.3
2019-04-06T10:19:43.323Z,10.3
2019-04-06T10:20:34.227Z,10.3
2019-04-06T10:21:25.373Z,10.3
2019-04-06T10:22:16.285Z,10.3
2019-04-06T10:23:07.153Z,10.3
2019-04-06T10:23:58.019Z,10.3
2019-04-06T10:24:48.884Z,10.3
2019-04-06T10:25:39.748Z,10.3
2019-04-06T10:26:31.032Z,10.3
2019-04-06T10:27:21.949Z,10.4
2019-04-06T10:28:12.859Z,10.4
2019-04-06T10:29:03.731Z,10.4
2019-04-06T10:29:54.597Z,10.4
2019-04-06T10:30:45.466Z,10.4
2019-04-06T10:31:39.221Z,10.4
2019-04-06T10:32:30.118Z,10.4
2019-04-06T10:33:21.183Z,10.4
2019-04-06T10:34:12.499Z,10.4
2019-04-06T10:35:03.381Z,10.4
2019-04-06T10:35:54.249Z,10.4
2019-04-06T10:36:45.116Z,10.4
2019-04-06T10:37:36.023Z,10.4
2019-04-06T10:38:26.901Z,10.4
2019-04-06T10:39:17.770Z,10.4
2019-04-06T10:40:08.661Z,10.5
2019-04-06T10:40:59.531Z,10.5
2019-04-06T10:41:50.402Z,10.5
2019-04-06T10:42:41.305Z,10.5
2019-04-06T10:43:32.171Z,10.5
2019-04-06T10:44:23.240Z,10.6
2019-04-06T10:45:14.123Z,10.6
2019-04-06T10:46:05.007Z,10.6
2019-04-06T10:46:55.873Z,10.6
2019-04-06T10:47:46.766Z,10.6
2019-04-06T10:48:40.734Z,10.6
2019-04-06T10:49:31.605Z,10.6
2019-04-06T10:50:22.658Z,10.6
2019-04-06T10:51:13.537Z,10.6
2019-04-06T10:52:04.403Z,10.6
2019-04-06T10:52:55.306Z,10.6
2019-04-06T10:53:51.179Z,10.6
2019-04-06T10:54:42.278Z,10.7
2019-04-06T10:55:33.169Z,10.7
2019-04-06T10:56:24.252Z,10.7
2019-04-06T10:57:15.145Z,10.7
2019-04-06T10:58:06.103Z,10.7
2019-04-06T10:58:57.017Z,10.7
2019-04-06T10:59:59.487Z,10.8
2019-04-06T11:00:43.790Z,10.8
2019-04-06T11:01:34.662Z,10.8
2019-04-06T11:02:25.657Z,10.8
2019-04-06T11:03:16.650Z,10.8
2019-04-06T11:04:07.689Z,10.8
2019-04-06T11:04:58.826Z,10.8
2019-04-06T11:05:49.973Z,10.8
2019-04-06T11:06:40.895Z,10.8
2019-04-06T11:07:31.780Z,10.8
2019-04-06T11:08:22.671Z,10.8
2019-04-06T11:09:13.547Z,10.8
2019-04-06T11:10:04.435Z,10.8
2019-04-06T11:10:55.574Z,10.9
2019-04-06T11:11:46.473Z,10.9
2019-04-06T11:12:37.487Z,10.9
2019-04-06T11:13:28.441Z,10.9
2019-04-06T11:14:19.384Z,10.9
2019-04-06T11:15:10.271Z,10.9
2019-04-06T11:16:01.368Z,10.9
2019-04-06T11:16:52.233Z,10.9
2019-04-06T11:17:43.098Z,10.9
2019-04-06T11:18:33.995Z,10.9
2019-04-06T11:19:24.865Z,10.9
2019-04-06T11:20:15.755Z,10.9
2019-04-06T11:21:06.638Z,10.9
2019-04-06T11:21:57.511Z,10.9
2019-04-06T11:22:48.381Z,11
2019-04-06T11:23:39.287Z,11
2019-04-06T11:24:30.416Z,11
2019-04-06T11:25:21.293Z,11
2019-04-06T11:26:12.170Z,11
2019-04-06T11:27:03.047Z,11
2019-04-06T11:27:53.940Z,11
2019-04-06T11:28:44.841Z,11
2019-04-06T11:29:35.711Z,11.1
2019-04-06T11:30:26.582Z,11.1
2019-04-06T11:31:17.480Z,11.1
2019-04-06T11:32:08.844Z,11.1
2019-04-06T11:32:59.734Z,11.1
2019-04-06T11:33:50.629Z,11.1
2019-04-06T11:34:41.492Z,11.1
2019-04-06T11:35:32.418Z,11.1
2019-04-06T11:36:23.295Z,11.1
2019-04-06T11:37:14.165Z,11.1
2019-04-06T11:38:05.039Z,11.1
2019-04-06T11:38:56.036Z,11.1
2019-04-06T11:39:47.067Z,11.1
2019-04-06T11:40:38.020Z,11.1
2019-04-06T11:41:28.889Z,11.1
2019-04-06T11:42:19.769Z,11.2